createdAt,value
2024-03-03T00:00:26.134Z,1.53
2024-03-03T00:01:27.985Z,1.63
2024-03-03T00:02:29.680Z,1.83
2024-03-03T00:03:33.834Z,1.53
2024-03-03T00:04:37.143Z,1.73
2024-03-03T00:05:38.545Z,1.83
2024-03-03T00:06:40.092Z,1.43
2024-03-03T00:07:41.537Z,2.00
2024-03-03T00:08:43.637Z,1.47
2024-03-03T00:09:46.615Z,6.13
2024-03-03T00:10:48.080Z,1.40
2024-03-03T00:11:49.408Z,1.50
2024-03-03T00:12:50.876Z,1.70
2024-03-03T00:13:52.908Z,1.77
2024-03-03T00:14:54.318Z,2.00
2024-03-03T00:15:55.841Z,1.47
2024-03-03T00:16:57.938Z,2.50
2024-03-03T00:17:59.494Z,2.77
2024-03-03T00:19:01.014Z,1.50
2024-03-03T00:20:03.146Z,1.33
2024-03-03T00:21:05.972Z,13.73
2024-03-03T00:22:07.384Z,1.67
2024-03-03T00:23:08.785Z,1.87
2024-03-03T00:24:10.470Z,1.60
2024-03-03T00:25:11.962Z,1.90
2024-03-03T00:26:13.708Z,1.70
2024-03-03T00:27:15.354Z,1.37
2024-03-03T00:28:16.794Z,1.27
2024-03-03T00:29:18.522Z,1.67
2024-03-03T00:30:20.311Z,1.47
2024-03-03T00:31:22.026Z,1.47
2024-03-03T00:32:23.471Z,1.97
2024-03-03T00:33:25.287Z,1.90
2024-03-03T00:34:26.691Z,1.60
2024-03-03T00:35:28.142Z,1.43
2024-03-03T00:36:29.507Z,3.30
2024-03-03T00:37:31.164Z,1.47
2024-03-03T00:38:35.466Z,5.40
2024-03-03T00:39:38.699Z,1.67
2024-03-03T00:40:41.401Z,1.60
2024-03-03T00:41:42.765Z,1.60
2024-03-03T00:42:44.169Z,1.20
2024-03-03T00:43:45.507Z,1.50
2024-03-03T00:44:47.171Z,1.67
2024-03-03T00:45:48.580Z,1.90
2024-03-03T00:46:50.325Z,1.60
2024-03-03T00:47:52.069Z,1.60
2024-03-03T00:48:53.465Z,1.50
2024-03-03T00:49:56.320Z,1.50
2024-03-03T00:50:57.664Z,2.47
2024-03-03T00:52:00.393Z,1.23
2024-03-03T00:53:02.816Z,1.60
2024-03-03T00:54:04.211Z,1.30
2024-03-03T00:55:06.521Z,1.70
2024-03-03T00:56:07.990Z,4.53
2024-03-03T00:57:09.678Z,1.63
2024-03-03T00:58:21.678Z,1.20
2024-03-03T00:59:23.074Z,1.23
2024-03-03T01:00:24.424Z,1.70
2024-03-03T01:01:25.864Z,15.20
2024-03-03T01:02:27.665Z,1.43
2024-03-03T01:03:31.366Z,1.70
2024-03-03T01:04:35.416Z,1.50
2024-03-03T01:05:37.228Z,1.07
2024-03-03T01:06:39.110Z,1.47
2024-03-03T01:07:43.220Z,3.90
2024-03-03T01:08:45.025Z,1.67
2024-03-03T01:09:46.451Z,1.40
2024-03-03T01:10:47.815Z,1.40
2024-03-03T01:11:52.863Z,2.20
2024-03-03T01:12:54.522Z,1.60
2024-03-03T01:13:56.179Z,1.60
2024-03-03T01:14:57.649Z,2.70
2024-03-03T01:15:59.039Z,1.73
2024-03-03T01:17:00.499Z,1.53
2024-03-03T01:18:01.988Z,1.43
2024-03-03T01:19:03.751Z,1.97
2024-03-03T01:20:07.735Z,2.27
2024-03-03T01:21:09.681Z,1.70
2024-03-03T01:22:11.112Z,1.60
2024-03-03T01:23:13.796Z,1.47
2024-03-03T01:24:15.311Z,1.87
2024-03-03T01:25:16.683Z,5.20
2024-03-03T01:26:18.414Z,1.77
2024-03-03T01:27:19.746Z,1.70
2024-03-03T01:28:21.208Z,1.73
2024-03-03T01:29:22.839Z,1.40
2024-03-03T01:30:24.263Z,1.37
2024-03-03T01:31:25.798Z,1.57
2024-03-03T01:32:28.678Z,1.40
2024-03-03T01:33:30.083Z,1.47
2024-03-03T01:34:31.722Z,1.30
2024-03-03T01:35:33.354Z,1.37
2024-03-03T01:36:35.246Z,1.40
2024-03-03T01:37:36.659Z,1.40
2024-03-03T01:38:38.630Z,1.30
2024-03-03T01:39:40.639Z,1.73
2024-03-03T01:40:43.017Z,1.63
2024-03-03T01:41:48.002Z,1.40
2024-03-03T01:42:54.570Z,1.30
2024-03-03T01:43:56.086Z,6.30
2024-03-03T01:44:57.467Z,1.80
2024-03-03T01:45:58.884Z,1.53
2024-03-03T01:47:01.438Z,1.27
2024-03-03T01:48:03.349Z,7.23
2024-03-03T01:49:06.360Z,1.27
2024-03-03T01:50:08.253Z,1.77
2024-03-03T01:51:11.047Z,1.57
2024-03-03T01:52:12.899Z,1.67
2024-03-03T01:53:15.158Z,1.40
2024-03-03T01:54:17.036Z,1.47
2024-03-03T01:55:21.671Z,1.63
2024-03-03T01:56:26.517Z,4.63
2024-03-03T01:57:28.476Z,1.80
2024-03-03T01:58:30.757Z,1.40
2024-03-03T01:59:32.320Z,1.33
2024-03-03T02:00:36.239Z,3.40
2024-03-03T02:01:39.455Z,1.67
2024-03-03T02:02:41.834Z,1.53
2024-03-03T02:03:43.832Z,1.30
2024-03-03T02:04:45.725Z,1.53
2024-03-03T02:05:47.909Z,2.07
2024-03-03T02:06:52.169Z,1.53
2024-03-03T02:07:55.384Z,1.57
2024-03-03T02:08:57.094Z,1.40
2024-03-03T02:09:59.073Z,1.30
2024-03-03T02:11:01.507Z,1.30
2024-03-03T02:12:04.118Z,1.40
2024-03-03T02:13:09.326Z,1.70
2024-03-03T02:14:11.303Z,1.47
2024-03-03T02:15:12.843Z,1.33
2024-03-03T02:16:14.274Z,1.77
2024-03-03T02:17:15.758Z,1.50
2024-03-03T02:18:17.187Z,1.60
2024-03-03T02:19:19.145Z,1.37
2024-03-03T02:20:20.830Z,2.50
2024-03-03T02:21:25.499Z,1.70
2024-03-03T02:22:26.835Z,4.93
2024-03-03T02:23:28.605Z,1.90
2024-03-03T02:24:30.023Z,3.53
2024-03-03T02:25:31.537Z,1.80
2024-03-03T02:26:33.464Z,1.20
2024-03-03T02:27:35.722Z,1.40
2024-03-03T02:28:37.394Z,1.63
2024-03-03T02:29:39.715Z,1.40
2024-03-03T02:30:41.031Z,1.80
2024-03-03T02:31:42.415Z,1.63
2024-03-03T02:32:43.841Z,1.37
2024-03-03T02:33:46.506Z,1.50
2024-03-03T02:34:47.874Z,5.03
2024-03-03T02:35:49.401Z,1.40
2024-03-03T02:36:51.879Z,6.13
2024-03-03T02:37:53.271Z,1.53
2024-03-03T02:38:58.117Z,1.80
2024-03-03T02:39:59.506Z,1.80
2024-03-03T02:41:00.936Z,1.50
2024-03-03T02:42:02.346Z,1.80
2024-03-03T02:43:05.536Z,8.70
2024-03-03T02:44:06.960Z,1.40
2024-03-03T02:45:08.820Z,1.60
2024-03-03T02:46:10.621Z,1.40
2024-03-03T02:47:12.063Z,1.10
2024-03-03T02:48:13.426Z,1.50
2024-03-03T02:49:14.971Z,2.00
2024-03-03T02:50:16.406Z,2.27
2024-03-03T02:51:17.763Z,1.30
2024-03-03T02:52:19.261Z,1.87
2024-03-03T02:53:20.631Z,1.20
2024-03-03T02:54:22.710Z,1.43
2024-03-03T02:55:24.146Z,1.57
2024-03-03T02:56:25.938Z,2.00
2024-03-03T02:57:27.474Z,2.10
2024-03-03T02:58:29.573Z,1.30
2024-03-03T02:59:31.208Z,1.40
2024-03-03T03:00:33.373Z,1.33
2024-03-03T03:01:34.818Z,1.50
2024-03-03T03:02:36.608Z,1.63
2024-03-03T03:03:38.156Z,1.70
2024-03-03T03:04:39.796Z,1.50
2024-03-03T03:05:41.265Z,1.43
2024-03-03T03:06:43.410Z,1.67
2024-03-03T03:07:44.746Z,1.50
2024-03-03T03:08:46.541Z,1.53
2024-03-03T03:09:48.010Z,1.30
2024-03-03T03:10:49.689Z,1.40
2024-03-03T03:11:51.375Z,2.00
2024-03-03T03:12:53.092Z,1.47
2024-03-03T03:13:54.561Z,1.77
2024-03-03T03:14:55.896Z,1.60
2024-03-03T03:15:57.541Z,2.40
2024-03-03T03:16:59.684Z,1.20
2024-03-03T03:18:01.378Z,2.40
2024-03-03T03:19:02.787Z,1.50
2024-03-03T03:20:05.761Z,3.33
2024-03-03T03:21:07.636Z,7.97
2024-03-03T03:22:09.002Z,1.37
2024-03-03T03:23:10.578Z,1.50
2024-03-03T03:24:11.975Z,1.40
2024-03-03T03:25:14.245Z,1.30
2024-03-03T03:26:15.885Z,1.30
2024-03-03T03:27:17.885Z,1.13
2024-03-03T03:28:20.129Z,1.40
2024-03-03T03:29:21.703Z,1.20
2024-03-03T03:30:23.138Z,1.17
2024-03-03T03:31:24.880Z,1.83
2024-03-03T03:32:26.484Z,1.43
2024-03-03T03:33:28.297Z,1.73
2024-03-03T03:34:29.967Z,1.60
2024-03-03T03:35:31.902Z,3.03
2024-03-03T03:36:33.681Z,1.83
2024-03-03T03:37:35.155Z,1.73
2024-03-03T03:38:37.098Z,1.50
2024-03-03T03:39:40.124Z,1.23
2024-03-03T03:40:41.629Z,1.50
2024-03-03T03:41:47.381Z,1.43
2024-03-03T03:42:48.802Z,4.20
2024-03-03T03:43:50.137Z,1.33
2024-03-03T03:44:51.709Z,1.53
2024-03-03T03:45:53.762Z,1.50
2024-03-03T03:46:56.444Z,1.40
2024-03-03T03:47:57.910Z,1.50
2024-03-03T03:48:59.580Z,1.37
2024-03-03T03:50:01.049Z,3.00
2024-03-03T03:51:02.419Z,1.20
2024-03-03T03:52:05.185Z,1.60
2024-03-03T03:53:07.041Z,1.20
2024-03-03T03:54:08.847Z,1.30
2024-03-03T03:55:10.488Z,1.30
2024-03-03T03:56:12.732Z,1.87
2024-03-03T03:57:14.142Z,1.30
2024-03-03T03:58:15.650Z,6.33
2024-03-03T03:59:17.094Z,2.23
2024-03-03T04:00:18.623Z,1.30
2024-03-03T04:01:20.749Z,1.27
2024-03-03T04:02:22.260Z,1.90
2024-03-03T04:03:23.651Z,2.00
2024-03-03T04:04:24.993Z,1.50
2024-03-03T04:05:26.568Z,1.40
2024-03-03T04:06:29.619Z,3.80
2024-03-03T04:07:31.171Z,1.40
2024-03-03T04:08:32.450Z,1.50
2024-03-03T04:09:34.066Z,4.93
2024-03-03T04:10:35.402Z,4.47
2024-03-03T04:11:36.792Z,1.50
2024-03-03T04:12:38.280Z,3.13
2024-03-03T04:13:39.836Z,1.57
2024-03-03T04:14:41.399Z,1.47
2024-03-03T04:15:43.340Z,1.47
2024-03-03T04:16:45.294Z,1.40
2024-03-03T04:17:48.409Z,1.57
2024-03-03T04:18:49.822Z,2.17
2024-03-03T04:19:51.287Z,1.60
2024-03-03T04:20:53.874Z,1.30
2024-03-03T04:21:55.297Z,1.90
2024-03-03T04:22:56.924Z,1.23
2024-03-03T04:23:58.632Z,1.90
2024-03-03T04:25:00.593Z,1.40
2024-03-03T04:26:06.560Z,1.50
2024-03-03T04:27:08.212Z,1.57
2024-03-03T04:28:11.515Z,1.53
2024-03-03T04:29:13.406Z,2.27
2024-03-03T04:30:15.316Z,1.90
2024-03-03T04:31:16.882Z,1.33
2024-03-03T04:32:18.371Z,1.50
2024-03-03T04:33:19.730Z,1.60
2024-03-03T04:34:21.157Z,1.57
2024-03-03T04:35:22.887Z,1.83
2024-03-03T04:36:24.285Z,1.20
2024-03-03T04:37:25.643Z,1.60
2024-03-03T04:38:27.044Z,2.30
2024-03-03T04:39:29.486Z,1.83
2024-03-03T04:40:31.274Z,2.97
2024-03-03T04:41:33.048Z,1.50
2024-03-03T04:42:34.371Z,5.90
2024-03-03T04:43:35.665Z,1.40
2024-03-03T04:44:37.350Z,5.73
2024-03-03T04:45:38.728Z,1.80
2024-03-03T04:46:40.092Z,3.13
2024-03-03T04:47:42.189Z,1.43
2024-03-03T04:48:43.783Z,1.50
2024-03-03T04:49:45.152Z,2.30
2024-03-03T04:50:46.558Z,1.80
2024-03-03T04:51:47.974Z,1.27
2024-03-03T04:52:49.395Z,1.53
2024-03-03T04:53:50.871Z,1.23
2024-03-03T04:54:52.223Z,2.57
2024-03-03T04:55:53.579Z,1.87
2024-03-03T04:56:55.194Z,1.20
2024-03-03T04:57:56.649Z,1.60
2024-03-03T04:58:59.117Z,2.00
2024-03-03T05:00:00.630Z,1.77
2024-03-03T05:01:02.122Z,8.23
2024-03-03T05:02:04.814Z,1.40
2024-03-03T05:03:07.045Z,1.77
2024-03-03T05:04:08.644Z,1.43
2024-03-03T05:05:10.459Z,4.20
2024-03-03T05:06:11.841Z,1.60
2024-03-03T05:07:13.932Z,2.03
2024-03-03T05:08:15.685Z,1.80
2024-03-03T05:09:17.044Z,1.80
2024-03-03T05:10:18.496Z,2.43
2024-03-03T05:11:20.213Z,1.80
2024-03-03T05:12:21.647Z,1.50
2024-03-03T05:13:23.092Z,1.63
2024-03-03T05:14:24.564Z,2.63
2024-03-03T05:15:25.883Z,2.43
2024-03-03T05:16:27.273Z,2.80
2024-03-03T05:17:28.826Z,2.43
2024-03-03T05:18:30.242Z,2.63
2024-03-03T05:19:31.624Z,2.80
2024-03-03T05:20:33.103Z,2.20
2024-03-03T05:21:34.528Z,11.30
2024-03-03T05:22:35.950Z,3.10
2024-03-03T05:23:37.451Z,3.80
2024-03-03T05:24:38.854Z,4.30
2024-03-03T05:25:40.841Z,2.53
2024-03-03T05:26:42.805Z,2.90
2024-03-03T05:27:44.151Z,2.17
2024-03-03T05:28:49.181Z,2.23
2024-03-03T05:29:52.314Z,4.33
2024-03-03T05:30:53.738Z,2.00
2024-03-03T05:31:55.182Z,2.30
2024-03-03T05:32:56.702Z,1.90
2024-03-03T05:33:58.081Z,2.03
2024-03-03T05:34:59.408Z,2.23
2024-03-03T05:36:00.730Z,2.07
2024-03-03T05:37:02.141Z,2.10
2024-03-03T05:38:03.665Z,1.93
2024-03-03T05:39:05.005Z,2.37
2024-03-03T05:40:07.327Z,4.03
2024-03-03T05:41:08.772Z,3.50
2024-03-03T05:42:10.137Z,2.37
2024-03-03T05:43:11.501Z,2.47
2024-03-03T05:44:12.941Z,2.57
2024-03-03T05:45:14.282Z,2.63
2024-03-03T05:46:15.671Z,2.60
2024-03-03T05:47:17.265Z,1.83
2024-03-03T05:48:18.579Z,3.00
2024-03-03T05:49:20.053Z,2.30
2024-03-03T05:50:21.666Z,2.50
2024-03-03T05:51:23.585Z,2.57
2024-03-03T05:52:25.130Z,3.23
2024-03-03T05:53:26.435Z,4.47
2024-03-03T05:54:27.816Z,2.60
2024-03-03T05:55:29.618Z,2.07
2024-03-03T05:56:31.044Z,2.60
2024-03-03T05:57:32.842Z,2.20
2024-03-03T05:58:34.306Z,2.20
2024-03-03T05:59:35.979Z,2.03
2024-03-03T06:00:38.693Z,5.70
2024-03-03T06:01:40.450Z,1.73
2024-03-03T06:02:41.914Z,2.07
2024-03-03T06:03:43.244Z,2.03
2024-03-03T06:04:44.573Z,2.40
2024-03-03T06:05:45.900Z,2.00
2024-03-03T06:06:49.197Z,2.20
2024-03-03T06:07:52.615Z,2.10
2024-03-03T06:08:54.006Z,2.30
2024-03-03T06:09:55.601Z,2.07
2024-03-03T06:10:57.497Z,2.13
2024-03-03T06:12:03.081Z,2.37
2024-03-03T06:13:04.619Z,2.97
2024-03-03T06:14:10.680Z,2.23
2024-03-03T06:15:12.352Z,2.30
2024-03-03T06:16:14.138Z,7.03
2024-03-03T06:17:15.735Z,3.23
2024-03-03T06:18:17.481Z,1.97
2024-03-03T06:19:19.014Z,2.57
2024-03-03T06:20:20.817Z,2.13
2024-03-03T06:21:22.711Z,2.83
2024-03-03T06:22:24.028Z,2.13
2024-03-03T06:23:26.329Z,2.30
2024-03-03T06:24:28.219Z,3.17
2024-03-03T06:25:29.546Z,4.93
2024-03-03T06:26:31.948Z,4.83
2024-03-03T06:27:33.421Z,1.97
2024-03-03T06:28:34.762Z,2.20
2024-03-03T06:29:36.613Z,3.53
2024-03-03T06:30:38.065Z,2.27
2024-03-03T06:31:46.866Z,2.27
2024-03-03T06:32:48.594Z,1.83
2024-03-03T06:33:50.116Z,2.40
2024-03-03T06:34:51.964Z,2.60
2024-03-03T06:35:53.410Z,4.13
2024-03-03T06:36:55.179Z,2.00
2024-03-03T06:37:57.048Z,1.77
2024-03-03T06:38:58.846Z,5.20
2024-03-03T06:40:00.535Z,3.17
2024-03-03T06:41:01.906Z,2.00
2024-03-03T06:42:03.764Z,2.47
2024-03-03T06:43:05.360Z,2.00
2024-03-03T06:44:06.769Z,2.03
2024-03-03T06:45:08.990Z,2.60
2024-03-03T06:46:11.738Z,2.23
2024-03-03T06:47:13.497Z,1.90
2024-03-03T06:48:15.210Z,9.43
2024-03-03T06:49:16.707Z,2.63
2024-03-03T06:50:18.164Z,2.30
2024-03-03T06:51:19.489Z,1.90
2024-03-03T06:52:21.188Z,2.10
2024-03-03T06:53:22.867Z,2.40
2024-03-03T06:54:24.167Z,1.80
2024-03-03T06:55:29.363Z,1.80
2024-03-03T06:56:31.719Z,2.40
2024-03-03T06:57:33.761Z,3.90
2024-03-03T06:58:35.540Z,1.90
2024-03-03T06:59:38.988Z,2.63
2024-03-03T07:00:41.395Z,1.90
2024-03-03T07:01:43.101Z,4.00
2024-03-03T07:03:19.722Z,2.00
2024-03-03T07:04:25.706Z,2.13
2024-03-03T07:05:27.417Z,3.63
2024-03-03T07:06:29.135Z,2.43
2024-03-03T07:07:30.531Z,4.73
2024-03-03T07:08:32.207Z,9.73
2024-03-03T07:09:33.784Z,2.20
2024-03-03T07:10:36.073Z,2.30
2024-03-03T07:11:37.990Z,1.73
2024-03-03T07:12:39.744Z,3.00
2024-03-03T07:13:41.140Z,1.90
2024-03-03T07:14:43.501Z,3.60
2024-03-03T07:15:45.071Z,2.03
2024-03-03T07:16:46.863Z,3.43
2024-03-03T07:17:48.580Z,8.53
2024-03-03T07:18:50.844Z,1.70
2024-03-03T07:19:52.417Z,2.00
2024-03-03T07:20:53.783Z,8.07
2024-03-03T07:21:55.220Z,4.73
2024-03-03T07:22:56.979Z,2.30
2024-03-03T07:23:58.770Z,1.90
2024-03-03T07:25:00.253Z,10.30
2024-03-03T07:26:02.328Z,2.13
2024-03-03T07:27:03.948Z,3.53
2024-03-03T07:28:06.134Z,1.60
2024-03-03T07:29:09.183Z,1.70
2024-03-03T07:30:11.280Z,1.73
2024-03-03T07:31:12.667Z,1.70
2024-03-03T07:32:14.264Z,1.80
2024-03-03T07:33:15.882Z,2.30
2024-03-03T07:34:17.545Z,1.87
2024-03-03T07:35:19.201Z,2.17
2024-03-03T07:36:20.592Z,2.37
2024-03-03T07:37:22.292Z,2.27
2024-03-03T07:38:23.615Z,2.33
2024-03-03T07:39:25.330Z,2.60
2024-03-03T07:40:28.522Z,2.43
2024-03-03T07:41:29.880Z,2.30
2024-03-03T07:42:31.608Z,2.57
2024-03-03T07:43:33.285Z,2.33
2024-03-03T07:44:34.988Z,2.07
2024-03-03T07:45:36.397Z,2.50
2024-03-03T07:46:37.785Z,2.40
2024-03-03T07:47:39.201Z,3.90
2024-03-03T07:48:41.562Z,4.00
2024-03-03T07:49:44.022Z,3.23
2024-03-03T07:50:45.580Z,2.33
2024-03-03T07:51:47.279Z,2.17
2024-03-03T07:52:48.958Z,2.30
2024-03-03T07:53:50.556Z,3.07
2024-03-03T07:54:52.289Z,4.77
2024-03-03T07:55:53.695Z,2.33
2024-03-03T07:56:56.440Z,2.20
2024-03-03T07:57:58.886Z,2.53
2024-03-03T07:59:06.448Z,2.00
2024-03-03T08:00:08.865Z,2.40
2024-03-03T08:01:14.125Z,2.50
2024-03-03T08:02:16.172Z,3.17
2024-03-03T08:03:17.484Z,3.93
2024-03-03T08:04:21.697Z,5.23
2024-03-03T08:05:23.349Z,1.70
2024-03-03T08:06:26.525Z,3.37
2024-03-03T08:07:29.894Z,2.10
2024-03-03T08:08:31.332Z,2.53
2024-03-03T08:09:32.678Z,2.00
2024-03-03T08:10:34.248Z,2.30
2024-03-03T08:11:35.583Z,2.13
2024-03-03T08:12:37.500Z,2.50
2024-03-03T08:13:40.569Z,1.80
2024-03-03T08:14:43.074Z,2.80
2024-03-03T08:15:48.126Z,2.13
2024-03-03T08:17:16.594Z,3.30
2024-03-03T08:18:18.350Z,3.33
2024-03-03T08:19:23.166Z,5.30
2024-03-03T08:20:25.126Z,2.10
2024-03-03T08:21:26.872Z,2.20
2024-03-03T08:22:28.524Z,4.97
2024-03-03T08:23:29.949Z,2.10
2024-03-03T08:24:32.937Z,5.23
2024-03-03T08:25:37.162Z,2.30
2024-03-03T08:32:10.024Z,3.03
2024-03-03T08:38:09.214Z,2.63
2024-03-03T08:39:25.581Z,2.17
2024-03-03T08:41:56.262Z,2.17
2024-03-03T08:43:01.900Z,3.13
2024-03-03T08:44:03.233Z,3.73
2024-03-03T08:45:06.652Z,5.20
2024-03-03T08:46:08.021Z,6.33
2024-03-03T08:47:09.438Z,4.30
2024-03-03T08:48:11.144Z,5.60
2024-03-03T08:49:12.549Z,5.90
2024-03-03T08:50:15.996Z,6.97
2024-03-03T08:51:18.232Z,5.37
2024-03-03T08:52:19.816Z,4.93
2024-03-03T08:53:21.241Z,5.97
2024-03-03T08:54:22.571Z,4.70
2024-03-03T08:55:24.301Z,5.23
2024-03-03T08:56:25.644Z,5.60
2024-03-03T08:57:27.019Z,7.33
2024-03-03T08:58:28.761Z,10.37
2024-03-03T08:59:30.472Z,5.30
2024-03-03T09:00:32.099Z,6.57
2024-03-03T09:01:33.584Z,8.70
2024-03-03T09:02:34.968Z,5.53
2024-03-03T09:03:36.464Z,5.63
2024-03-03T09:04:40.717Z,6.03
2024-03-03T09:05:42.116Z,7.50
2024-03-03T09:06:43.519Z,9.37
2024-03-03T09:07:45.026Z,8.00
2024-03-03T09:08:47.338Z,5.43
2024-03-03T09:09:50.563Z,6.53
2024-03-03T09:10:57.503Z,8.60
2024-03-03T09:11:59.035Z,5.40
2024-03-03T09:13:00.434Z,6.10
2024-03-03T09:14:01.779Z,6.30
2024-03-03T09:15:03.685Z,7.50
2024-03-03T09:16:06.079Z,5.77
2024-03-03T09:17:07.425Z,9.57
2024-03-03T09:18:08.825Z,5.47
2024-03-03T09:19:10.446Z,6.33
2024-03-03T09:20:12.744Z,5.43
2024-03-03T09:21:15.458Z,7.70
2024-03-03T09:22:16.854Z,8.80
2024-03-03T09:23:19.600Z,7.83
2024-03-03T09:24:23.814Z,7.27
2024-03-03T09:25:25.394Z,5.67
2024-03-03T09:26:27.143Z,8.13
2024-03-03T09:27:28.596Z,5.77
2024-03-03T09:28:30.049Z,5.03
2024-03-03T09:29:31.578Z,6.77
2024-03-03T09:30:32.933Z,6.23
2024-03-03T09:31:34.332Z,9.50
2024-03-03T09:32:35.753Z,4.83
2024-03-03T09:33:37.151Z,6.10
2024-03-03T09:34:38.817Z,5.90
2024-03-03T09:35:40.302Z,5.63
2024-03-03T09:36:43.483Z,5.70
2024-03-03T09:37:46.814Z,4.47
2024-03-03T09:38:48.191Z,6.33
2024-03-03T09:39:49.627Z,6.20
2024-03-03T09:40:51.423Z,7.20
2024-03-03T09:41:59.469Z,9.00
2024-03-03T09:43:02.647Z,6.43
2024-03-03T09:44:11.791Z,6.10
2024-03-03T09:45:15.652Z,5.60
2024-03-03T09:47:20.575Z,4.53
2024-03-03T09:48:24.147Z,6.53
2024-03-03T09:49:26.000Z,5.43
2024-03-03T09:50:28.398Z,7.20
2024-03-03T09:51:31.977Z,5.60
2024-03-03T09:52:34.166Z,5.10
2024-03-03T09:53:41.864Z,8.40
2024-03-03T09:54:44.811Z,12.37
2024-03-03T09:55:46.718Z,6.87
2024-03-03T09:56:49.650Z,10.10
2024-03-03T09:57:51.685Z,18.67
2024-03-03T09:58:53.716Z,8.13
2024-03-03T09:59:55.225Z,7.63
2024-03-03T10:00:57.687Z,8.07
2024-03-03T10:01:59.482Z,8.10
2024-03-03T10:03:02.437Z,6.20
2024-03-03T10:04:07.273Z,5.73
2024-03-03T10:05:10.053Z,6.30
2024-03-03T10:06:14.888Z,6.80
2024-03-03T10:07:23.770Z,6.63
2024-03-03T10:08:28.531Z,7.03
2024-03-03T10:09:30.711Z,5.20
2024-03-03T10:10:36.834Z,8.70
2024-03-03T10:11:39.377Z,6.07
2024-03-03T10:12:44.483Z,7.30
2024-03-03T10:13:48.421Z,5.67
2024-03-03T10:14:54.427Z,6.97
2024-03-03T10:16:00.764Z,9.50
2024-03-03T10:17:04.519Z,7.40
2024-03-03T10:18:09.651Z,4.97
2024-03-03T10:19:11.251Z,11.00
2024-03-03T10:20:13.991Z,6.13
2024-03-03T10:21:15.605Z,5.40
2024-03-03T10:22:21.789Z,6.73
2024-03-03T10:23:25.029Z,7.47
2024-03-03T10:24:28.150Z,7.37
2024-03-03T10:25:31.424Z,5.70
2024-03-03T10:26:36.928Z,6.27
2024-03-03T10:27:41.229Z,7.23
2024-03-03T10:28:42.596Z,6.53
2024-03-03T10:29:44.914Z,7.23
2024-03-03T10:30:46.288Z,8.97
2024-03-03T10:31:49.080Z,6.23
2024-03-03T10:32:51.059Z,5.50
2024-03-03T10:33:56.189Z,7.10
2024-03-03T10:34:58.521Z,8.60
2024-03-03T10:36:11.606Z,6.97
2024-03-03T10:37:14.650Z,6.37
2024-03-03T10:38:16.766Z,7.73
2024-03-03T10:39:18.486Z,6.93
2024-03-03T10:40:23.337Z,5.63
2024-03-03T10:41:25.373Z,8.30
2024-03-03T10:42:27.104Z,6.70
2024-03-03T10:43:28.575Z,7.90
2024-03-03T10:44:30.656Z,7.13
2024-03-03T10:45:32.492Z,7.90
2024-03-03T10:46:34.529Z,10.53
2024-03-03T10:47:35.953Z,14.13
2024-03-03T10:48:37.657Z,5.93
2024-03-03T10:49:40.838Z,8.27
2024-03-03T10:50:46.766Z,6.50
2024-03-03T10:51:48.604Z,8.27
2024-03-03T10:52:51.642Z,7.00
2024-03-03T10:53:56.884Z,6.70
2024-03-03T10:54:58.522Z,5.77
2024-03-03T10:56:00.955Z,7.23
2024-03-03T10:57:02.948Z,6.73
2024-03-03T10:58:06.486Z,6.50
2024-03-03T10:59:08.743Z,7.00
2024-03-03T11:00:15.691Z,7.10
2024-03-03T11:01:17.864Z,8.37
2024-03-03T11:02:21.202Z,7.77
2024-03-03T11:03:24.018Z,5.80
2024-03-03T11:04:31.413Z,8.73
2024-03-03T11:05:32.948Z,5.53
2024-03-03T11:06:35.329Z,7.80
2024-03-03T11:07:38.209Z,9.63
2024-03-03T11:08:51.193Z,7.70
2024-03-03T11:09:53.921Z,7.23
2024-03-03T11:11:04.261Z,10.53
2024-03-03T11:12:07.273Z,6.27
2024-03-03T11:13:11.293Z,9.00
2024-03-03T11:14:14.353Z,8.27
2024-03-03T11:15:22.719Z,7.17
2024-03-03T11:16:31.353Z,7.47
2024-03-03T11:17:41.419Z,11.70
2024-03-03T11:18:49.815Z,9.70
2024-03-03T11:19:51.965Z,6.43
2024-03-03T11:20:55.412Z,7.40
2024-03-03T11:22:02.051Z,7.40
2024-03-03T11:23:36.576Z,6.27
2024-03-03T11:24:42.530Z,8.13
2024-03-03T11:26:20.955Z,11.30
2024-03-03T11:27:32.806Z,9.77
2024-03-03T11:28:36.363Z,7.83
2024-03-03T11:29:39.344Z,9.13
2024-03-03T11:30:41.554Z,8.97
2024-03-03T11:31:43.331Z,11.20
2024-03-03T11:32:45.609Z,12.70
2024-03-03T11:33:48.786Z,9.20
2024-03-03T11:34:51.998Z,6.40
2024-03-03T11:35:53.909Z,11.50
2024-03-03T11:36:55.687Z,12.90
2024-03-03T11:37:57.107Z,10.37
2024-03-03T11:38:59.868Z,12.60
2024-03-03T11:40:04.174Z,13.60
2024-03-03T11:41:11.918Z,13.20
2024-03-03T11:42:21.599Z,6.70
2024-03-03T11:43:26.856Z,10.87
2024-03-03T11:44:38.300Z,11.60
2024-03-03T11:45:44.480Z,15.60
2024-03-03T11:46:50.654Z,11.60
2024-03-03T11:47:52.116Z,12.37
2024-03-03T11:49:00.950Z,10.73
2024-03-03T11:50:16.898Z,9.80
2024-03-03T11:51:30.496Z,11.37
2024-03-03T11:52:43.085Z,14.17
2024-03-03T11:53:44.440Z,16.63
2024-03-03T11:54:46.089Z,13.33
2024-03-03T11:55:51.497Z,10.03
2024-03-03T11:56:53.652Z,11.90
2024-03-03T11:58:03.023Z,9.60
2024-03-03T11:59:04.366Z,11.30
2024-03-03T12:00:14.298Z,10.03
2024-03-03T12:01:23.033Z,11.97
2024-03-03T12:02:26.088Z,13.03
2024-03-03T12:03:28.023Z,13.93
2024-03-03T12:04:29.757Z,8.63
2024-03-03T12:05:31.538Z,10.80
2024-03-03T12:06:32.954Z,14.30
2024-03-03T12:07:34.888Z,11.90
2024-03-03T12:08:37.183Z,11.47
2024-03-03T12:09:43.696Z,12.13
2024-03-03T12:10:45.665Z,14.20
2024-03-03T12:11:50.488Z,11.20
2024-03-03T12:12:53.783Z,11.83
2024-03-03T12:13:59.143Z,14.47
2024-03-03T12:15:00.630Z,13.73
2024-03-03T12:16:02.132Z,14.03
2024-03-03T12:17:04.639Z,11.47
2024-03-03T12:18:11.264Z,20.60
2024-03-03T12:19:15.447Z,14.90
2024-03-03T12:20:25.690Z,16.43
2024-03-03T12:21:27.581Z,19.07
2024-03-03T12:22:29.004Z,13.20
2024-03-03T12:23:31.131Z,11.90
2024-03-03T12:24:33.535Z,18.03
2024-03-03T12:25:35.386Z,10.50
2024-03-03T12:26:36.930Z,10.10
2024-03-03T12:27:38.785Z,10.93
2024-03-03T12:28:40.409Z,13.57
2024-03-03T12:30:00.827Z,15.73
2024-03-03T12:31:02.231Z,13.20
2024-03-03T12:32:06.041Z,16.03
2024-03-03T12:33:08.622Z,13.60
2024-03-03T12:34:10.711Z,15.93
2024-03-03T12:35:12.055Z,19.93
2024-03-03T12:36:15.063Z,13.63
2024-03-03T12:37:16.667Z,17.80
2024-03-03T12:38:18.159Z,11.40
2024-03-03T12:39:19.524Z,16.43
2024-03-03T12:40:21.186Z,14.13
2024-03-03T12:41:22.780Z,26.83
2024-03-03T12:42:24.177Z,15.37
2024-03-03T12:43:27.444Z,16.10
2024-03-03T12:44:28.924Z,17.13
2024-03-03T12:45:31.082Z,20.43
2024-03-03T12:46:33.582Z,16.40
2024-03-03T12:47:35.104Z,18.00
2024-03-03T12:48:36.620Z,13.20
2024-03-03T12:49:38.069Z,13.33
2024-03-03T12:50:41.761Z,13.60
2024-03-03T12:51:43.826Z,13.50
2024-03-03T12:52:45.995Z,17.10
2024-03-03T12:53:47.794Z,12.70
2024-03-03T12:54:49.297Z,12.90
2024-03-03T12:55:51.462Z,11.90
2024-03-03T12:56:53.924Z,10.23
2024-03-03T12:57:55.624Z,19.63
2024-03-03T12:58:57.416Z,13.17
2024-03-03T12:59:58.982Z,13.17
2024-03-03T13:01:01.248Z,22.43
2024-03-03T13:02:03.064Z,12.70
2024-03-03T13:03:04.595Z,11.70
2024-03-03T13:04:10.700Z,13.50
2024-03-03T13:05:17.075Z,10.30
2024-03-03T13:06:18.852Z,21.40
2024-03-03T13:07:21.214Z,16.40
2024-03-03T13:08:22.850Z,11.43
2024-03-03T13:09:31.212Z,8.90
2024-03-03T13:10:35.196Z,13.67
2024-03-03T13:11:36.762Z,12.63
2024-03-03T13:12:38.278Z,10.77
2024-03-03T13:13:40.757Z,14.27
2024-03-03T13:14:42.111Z,10.20
2024-03-03T13:15:50.597Z,16.67
2024-03-03T13:17:05.625Z,13.90
2024-03-03T13:18:17.378Z,17.47
2024-03-03T13:19:19.246Z,9.77
2024-03-03T13:20:28.658Z,12.17
2024-03-03T13:21:30.311Z,10.00
2024-03-03T13:22:31.851Z,12.00
2024-03-03T13:23:33.329Z,19.60
2024-03-03T13:24:37.281Z,11.33
2024-03-03T13:25:39.426Z,9.80
2024-03-03T13:26:42.523Z,11.87
2024-03-03T13:27:44.100Z,25.43
2024-03-03T13:28:46.744Z,12.20
2024-03-03T13:29:48.996Z,11.80
2024-03-03T13:31:06.972Z,12.40
2024-03-03T13:32:09.287Z,13.10
2024-03-03T13:33:10.659Z,10.90
2024-03-03T13:34:12.125Z,11.47
2024-03-03T13:35:13.568Z,12.00
2024-03-03T13:36:15.210Z,12.60
2024-03-03T13:37:16.819Z,9.60
2024-03-03T13:38:18.766Z,11.40
2024-03-03T13:39:20.073Z,13.93
2024-03-03T13:40:21.524Z,12.10
2024-03-03T13:41:22.889Z,14.30
2024-03-03T13:42:25.402Z,10.10
2024-03-03T13:43:27.094Z,25.50
2024-03-03T13:44:28.983Z,13.53
2024-03-03T13:45:31.693Z,18.80
2024-03-03T13:46:42.435Z,12.67
2024-03-03T13:47:43.960Z,16.30
2024-03-03T13:48:45.810Z,13.93
2024-03-03T13:49:47.189Z,13.63
2024-03-03T13:50:48.919Z,16.50
2024-03-03T13:51:50.279Z,16.20
2024-03-03T13:52:54.212Z,11.80
2024-03-03T13:53:56.281Z,15.17
2024-03-03T13:54:57.897Z,16.20
2024-03-03T13:55:59.312Z,16.13
2024-03-03T13:57:03.625Z,16.50
2024-03-03T13:58:07.219Z,20.53
2024-03-03T13:59:10.511Z,11.50
2024-03-03T14:00:15.621Z,15.37
2024-03-03T14:01:18.012Z,14.10
2024-03-03T14:02:19.523Z,17.60